sensor_id;sensor_type;location;lat;lon;timestamp;temperature;humidity
47514;DHT22;33951;51.988;5.910;2023-09-19T04:03:08;13.60;99.90
47514;DHT22;33951;51.988;5.910;2023-09-19T04:05:36;13.60;99.90
47514;DHT22;33951;51.988;5.910;2023-09-19T04:08:01;13.60;99.90
47514;DHT22;33951;51.988;5.910;2023-09-19T04:10:29;13.60;99.90
47514;DHT22;33951;51.988;5.910;2023-09-19T04:22:45;13.50;99.90
47514;DHT22;33951;51.988;5.910;2023-09-19T04:29:11;13.60;99.90
47514;DHT22;33951;51.988;5.910;2023-09-19T04:31:59;13.60;99.90
47514;DHT22;33951;51.988;5.910;2023-09-19T04:34:43;13.60;99.90
47514;DHT22;33951;51.988;5.910;2023-09-19T04:38:16;13.50;99.90
47514;DHT22;33951;51.988;5.910;2023-09-19T04:41:34;13.50;99.90
47514;DHT22;33951;51.988;5.910;2023-09-19T04:44:33;13.60;99.90
47514;DHT22;33951;51.988;5.910;2023-09-19T04:47:18;13.60;99.90
47514;DHT22;33951;51.988;5.910;2023-09-19T04:50:23;13.60;99.90
47514;DHT22;33951;51.988;5.910;2023-09-19T04:53:38;13.70;99.90
47514;DHT22;33951;51.988;5.910;2023-09-19T04:56:03;13.60;99.90
47514;DHT22;33951;51.988;5.910;2023-09-19T04:58:58;13.60;99.90
47514;DHT22;33951;51.988;5.910;2023-09-19T05:05:35;13.60;99.90
47514;DHT22;33951;51.988;5.910;2023-09-19T05:12:07;13.60;99.90
47514;DHT22;33951;51.988;5.910;2023-09-19T05:25:53;13.60;99.90
47514;DHT22;33951;51.988;5.910;2023-09-19T05:29:00;13.60;99.90
47514;DHT22;33951;51.988;5.910;2023-09-19T05:42:42;13.70;99.90
47514;DHT22;33951;51.988;5.910;2023-09-19T05:48:47;13.80;99.90
47514;DHT22;33951;51.988;5.910;2023-09-19T05:51:15;13.80;99.90
47514;DHT22;33951;51.988;5.910;2023-09-19T05:53:43;13.80;99.90
47514;DHT22;33951;51.988;5.910;2023-09-19T05:56:09;13.90;99.90
47514;DHT22;33951;51.988;5.910;2023-09-19T05:58:36;14.00;99.90
47514;DHT22;33951;51.988;5.910;2023-09-19T06:01:01;14.10;99.90
47514;DHT22;33951;51.988;5.910;2023-09-19T06:03:27;14.00;99.90
47514;DHT22;33951;51.988;5.910;2023-09-19T06:06:02;14.00;99.90
47514;DHT22;33951;51.988;5.910;2023-09-19T06:08:30;14.00;99.90
47514;DHT22;33951;51.988;5.910;2023-09-19T06:10:59;14.00;99.90
47514;DHT22;33951;51.988;5.910;2023-09-19T06:13:28;14.00;99.90
47514;DHT22;33951;51.988;5.910;2023-09-19T06:15:55;14.10;99.90
47514;DHT22;33951;51.988;5.910;2023-09-19T06:18:29;14.10;99.90
47514;DHT22;33951;51.988;5.910;2023-09-19T06:28:40;14.10;99.90
47514;DHT22;33951;51.988;5.910;2023-09-19T06:38:15;14.30;99.90
47514;DHT22;33951;51.988;5.910;2023-09-19T06:45:37;14.30;99.90
47514;DHT22;33951;51.988;5.910;2023-09-19T06:48:41;14.30;99.90
47514;DHT22;33951;51.988;5.910;2023-09-19T06:51:57;14.40;99.90
47514;DHT22;33951;51.988;5.910;2023-09-19T06:55:20;14.40;99.90
47514;DHT22;33951;51.988;5.910;2023-09-19T07:44:49;15.00;99.90
47514;DHT22;33951;51.988;5.910;2023-09-19T07:55:02;15.30;99.90
47514;DHT22;33951;51.988;5.910;2023-09-19T09:39:02;17.40;99.90
47514;DHT22;33951;51.988;5.910;2023-09-19T09:45:24;17.60;99.90
47514;DHT22;33951;51.988;5.910;2023-09-19T09:48:33;17.60;99.90
47514;DHT22;33951;51.988;5.910;2023-09-19T09:51:38;17.70;99.90
47514;DHT22;33951;51.988;5.910;2023-09-19T09:54:34;17.60;99.90
47514;DHT22;33951;51.988;5.910;2023-09-19T09:57:31;17.60;99.90
47514;DHT22;33951;51.988;5.910;2023-09-19T10:00:37;17.70;99.90
47514;DHT22;33951;51.988;5.910;2023-09-19T10:03:39;17.80;99.90
47514;DHT22;33951;51.988;5.910;2023-09-19T10:06:24;17.90;99.90
47514;DHT22;33951;51.988;5.910;2023-09-19T10:09:54;18.00;99.90
47514;DHT22;33951;51.988;5.910;2023-09-19T10:12:50;18.40;99.90
47514;DHT22;33951;51.988;5.910;2023-09-19T10:15:32;18.50;99.90
47514;DHT22;33951;51.988;5.910;2023-09-19T10:21:23;18.90;99.90
47514;DHT22;33951;51.988;5.910;2023-09-19T10:24:17;18.70;99.90
47514;DHT22;33951;51.988;5.910;2023-09-19T10:32:47;19.20;99.90
47514;DHT22;33951;51.988;5.910;2023-09-19T10:35:50;19.00;99.90
47514;DHT22;33951;51.988;5.910;2023-09-19T10:38:32;18.70;99.90
47514;DHT22;33951;51.988;5.910;2023-09-19T10:41:12;18.50;99.90
47514;DHT22;33951;51.988;5.910;2023-09-19T10:43:46;18.60;99.90
47514;DHT22;33951;51.988;5.910;2023-09-19T10:46:16;18.70;99.90
47514;DHT22;33951;51.988;5.910;2023-09-19T10:48:44;18.70;99.90
47514;DHT22;33951;51.988;5.910;2023-09-19T10:51:19;18.80;99.90
47514;DHT22;33951;51.988;5.910;2023-09-19T10:54:13;19.00;99.90
47514;DHT22;33951;51.988;5.910;2023-09-19T10:57:17;19.20;99.90
47514;DHT22;33951;51.988;5.910;2023-09-19T11:00:06;19.10;99.90
47514;DHT22;33951;51.988;5.910;2023-09-19T11:21:58;18.60;99.90
47514;DHT22;33951;51.988;5.910;2023-09-19T11:24:42;18.60;99.90
47514;DHT22;33951;51.988;5.910;2023-09-19T11:27:17;18.60;99.90
47514;DHT22;33951;51.988;5.910;2023-09-19T11:30:30;18.70;99.90
47514;DHT22;33951;51.988;5.910;2023-09-19T11:38:59;18.70;99.90
47514;DHT22;33951;51.988;5.910;2023-09-19T11:41:52;18.80;99.90
47514;DHT22;33951;51.988;5.910;2023-09-19T11:44:39;18.70;99.90
47514;DHT22;33951;51.988;5.910;2023-09-19T11:47:21;18.80;99.90
47514;DHT22;33951;51.988;5.910;2023-09-19T11:50:21;19.00;99.90
47514;DHT22;33951;51.988;5.910;2023-09-19T11:52:55;19.20;99.90
47514;DHT22;33951;51.988;5.910;2023-09-19T11:55:27;19.40;99.90
47514;DHT22;33951;51.988;5.910;2023-09-19T11:58:15;19.60;99.90
47514;DHT22;33951;51.988;5.910;2023-09-19T12:04:13;20.40;99.90
47514;DHT22;33951;51.988;5.910;2023-09-19T12:07:11;20.40;99.90
47514;DHT22;33951;51.988;5.910;2023-09-19T12:09:47;20.30;99.90
47514;DHT22;33951;51.988;5.910;2023-09-19T12:12:49;20.10;99.90
47514;DHT22;33951;51.988;5.910;2023-09-19T12:15:30;20.10;99.90
47514;DHT22;33951;51.988;5.910;2023-09-19T14:28:50;20.10;99.90
47514;DHT22;33951;51.988;5.910;2023-09-19T15:27:47;19.20;99.90
47514;DHT22;33951;51.988;5.910;2023-09-19T15:37:44;19.20;99.90
47514;DHT22;33951;51.988;5.910;2023-09-19T15:40:33;19.10;99.90
47514;DHT22;33951;51.988;5.910;2023-09-19T15:53:09;19.00;99.90
47514;DHT22;33951;51.988;5.910;2023-09-19T16:13:03;19.00;99.90
47514;DHT22;33951;51.988;5.910;2023-09-19T17:18:55;18.80;99.90
47514;DHT22;33951;51.988;5.910;2023-09-19T17:45:28;18.40;99.90
47514;DHT22;33951;51.988;5.910;2023-09-19T18:00:52;18.10;99.90
47514;DHT22;33951;51.988;5.910;2023-09-19T18:03:28;18.00;99.90
47514;DHT22;33951;51.988;5.910;2023-09-19T18:16:36;17.90;99.90
47514;DHT22;33951;51.988;5.910;2023-09-19T18:23:02;17.90;99.90
47514;DHT22;33951;51.988;5.910;2023-09-19T18:25:39;17.90;99.90
47514;DHT22;33951;51.988;5.910;2023-09-19T18:32:49;17.90;99.90
47514;DHT22;33951;51.988;5.910;2023-09-19T18:49:23;17.80;99.90
47514;DHT22;33951;51.988;5.910;2023-09-19T18:52:00;17.70;99.90
47514;DHT22;33951;51.988;5.910;2023-09-19T18:58:08;17.60;99.90
47514;DHT22;33951;51.988;5.910;2023-09-19T19:00:46;17.50;99.90
47514;DHT22;33951;51.988;5.910;2023-09-19T19:03:44;17.60;99.90
47514;DHT22;33951;51.988;5.910;2023-09-19T19:06:57;17.60;99.90
47514;DHT22;33951;51.988;5.910;2023-09-19T19:09:53;17.60;99.90
47514;DHT22;33951;51.988;5.910;2023-09-19T19:12:39;17.50;99.90
47514;DHT22;33951;51.988;5.910;2023-09-19T19:15:40;17.50;99.90
47514;DHT22;33951;51.988;5.910;2023-09-19T19:19:04;17.50;99.90
47514;DHT22;33951;51.988;5.910;2023-09-19T19:25:28;17.50;99.90
47514;DHT22;33951;51.988;5.910;2023-09-19T19:28:41;17.50;99.90
47514;DHT22;33951;51.988;5.910;2023-09-19T19:37:36;17.70;99.90
47514;DHT22;33951;51.988;5.910;2023-09-19T19:47:12;17.50;99.90
47514;DHT22;33951;51.988;5.910;2023-09-19T20:00:22;17.70;99.90
47514;DHT22;33951;51.988;5.910;2023-09-19T20:55:19;18.10;99.90
47514;DHT22;33951;51.988;5.910;2023-09-19T20:58:19;18.10;99.90
47514;DHT22;33951;51.988;5.910;2023-09-19T21:08:04;18.00;99.90
47514;DHT22;33951;51.988;5.910;2023-09-19T21:14:21;18.00;99.90
47514;DHT22;33951;51.988;5.910;2023-09-19T21:20:35;18.10;99.90
47514;DHT22;33951;51.988;5.910;2023-09-19T21:28:41;18.00;99.90
47514;DHT22;33951;51.988;5.910;2023-09-19T21:31:22;18.10;99.90
47514;DHT22;33951;51.988;5.910;2023-09-19T21:34:14;18.10;99.90
47514;DHT22;33951;51.988;5.910;2023-09-19T21:37:24;18.10;99.90
47514;DHT22;33951;51.988;5.910;2023-09-19T21:39:50;18.10;99.90
47514;DHT22;33951;51.988;5.910;2023-09-19T21:42:39;18.10;99.90
47514;DHT22;33951;51.988;5.910;2023-09-19T21:45:19;18.10;99.90
47514;DHT22;33951;51.988;5.910;2023-09-19T21:47:48;18.20;99.90
47514;DHT22;33951;51.988;5.910;2023-09-19T21:50:24;18.10;99.90
47514;DHT22;33951;51.988;5.910;2023-09-19T21:53:08;18.10;99.90
47514;DHT22;33951;51.988;5.910;2023-09-19T21:55:50;18.20;99.90
47514;DHT22;33951;51.988;5.910;2023-09-19T21:58:49;18.10;99.90
47514;DHT22;33951;51.988;5.910;2023-09-19T22:01:27;18.00;99.90
47514;DHT22;33951;51.988;5.910;2023-09-19T22:04:01;18.10;99.90
47514;DHT22;33951;51.988;5.910;2023-09-19T22:09:12;18.00;99.90
47514;DHT22;33951;51.988;5.910;2023-09-19T22:11:51;18.00;99.90
47514;DHT22;33951;51.988;5.910;2023-09-19T22:14:28;18.00;99.90
47514;DHT22;33951;51.988;5.910;2023-09-19T22:17:22;18.00;99.90
47514;DHT22;33951;51.988;5.910;2023-09-19T22:23:41;18.10;99.90
47514;DHT22;33951;51.988;5.910;2023-09-19T22:26:26;18.00;99.90
47514;DHT22;33951;51.988;5.910;2023-09-19T22:29:17;18.20;99.90
47514;DHT22;33951;51.988;5.910;2023-09-19T22:35:45;18.10;99.90
47514;DHT22;33951;51.988;5.910;2023-09-19T22:41:57;18.10;99.90
47514;DHT22;33951;51.988;5.910;2023-09-19T22:44:55;18.10;99.90
47514;DHT22;33951;51.988;5.910;2023-09-19T22:47:21;18.00;99.90
47514;DHT22;33951;51.988;5.910;2023-09-19T22:49:52;18.10;99.90
47514;DHT22;33951;51.988;5.910;2023-09-19T22:52:25;18.10;99.90
47514;DHT22;33951;51.988;5.910;2023-09-19T22:55:03;18.10;99.90
47514;DHT22;33951;51.988;5.910;2023-09-19T22:57:37;18.10;99.90
47514;DHT22;33951;51.988;5.910;2023-09-19T23:00:09;18.10;99.90
47514;DHT22;33951;51.988;5.910;2023-09-19T23:02:44;18.10;99.90
47514;DHT22;33951;51.988;5.910;2023-09-19T23:05:13;18.00;99.90
47514;DHT22;33951;51.988;5.910;2023-09-19T23:07:44;18.00;99.90
47514;DHT22;33951;51.988;5.910;2023-09-19T23:13:47;18.10;99.90
47514;DHT22;33951;51.988;5.910;2023-09-19T23:16:31;18.10;99.90
47514;DHT22;33951;51.988;5.910;2023-09-19T23:19:07;18.20;99.90
47514;DHT22;33951;51.988;5.910;2023-09-19T23:25:36;18.10;99.90
47514;DHT22;33951;51.988;5.910;2023-09-19T23:28:17;18.10;99.90
47514;DHT22;33951;51.988;5.910;2023-09-19T23:31:12;18.00;99.90
47514;DHT22;33951;51.988;5.910;2023-09-19T23:34:09;18.10;99.90
47514;DHT22;33951;51.988;5.910;2023-09-19T23:36:58;18.00;99.90
47514;DHT22;33951;51.988;5.910;2023-09-19T23:39:47;18.00;99.90
47514;DHT22;33951;51.988;5.910;2023-09-19T23:42:43;18.00;99.90
47514;DHT22;33951;51.988;5.910;2023-09-19T23:52:03;18.10;99.90
47514;DHT22;33951;51.988;5.910;2023-09-19T23:54:48;18.10;99.90
